Netarts Bay, Oregon
Current Conditions -  °F | °C
As of 5:35 AM on Thursday 30 Oct 2014 (Local Time) from KTMK Reporting Station
Overcast Overcast  
Wind Chill: 55°   Ceiling: 4000
Heat Index: 55°   Visibility: 10mi
Dew Point: 55°   Wind: 0mph
Humidity: 100%   Direction: NA
Pressure: 29.86"   Gusts: NA
Location:  45.435°N, 123.944°W
Report Text: KTMK 301235Z AUTO 00000KT 10SM OVC040 13/13 A2986 RMK AO2
Loading
Personal Weather Stations






























Interactive Weather Map
Tropical Storm Tracking
New forecast layout! Learn more

10-Day Weather Forecast

Advertisements
Track Severe Weather on mobile